Time;durP1;ratioP1;P1;durP2;ratioP2;P2;SDS_P1;SDS_P2;PMS_P1;PMS_P2;Temp;Humidity;BMP_temperature;BMP_pressure;BME280_temperature;BME280_humidity;BME280_pressure;Samples;Min_cycle;Max_cycle;Signal;HPM_P1;HPM_P2
2022/11/14 00:00:33;;;;;;;0.70;0.70;;;7.20;99.90;;;;;;4966274;28;20441;-86
2022/11/14 00:03:00;;;;;;;0.70;0.70;;;7.10;99.90;;;;;;4949410;28;20407;-83
2022/11/14 00:05:26;;;;;;;0.70;0.70;;;7.10;99.90;;;;;;4968742;28;20063;-84
2022/11/14 00:07:52;;;;;;;0.70;0.70;;;7.20;99.90;;;;;;4950745;28;20049;-86
2022/11/14 00:10:18;;;;;;;0.70;0.70;;;7.10;99.90;;;;;;4988567;28;20075;-84
2022/11/14 00:12:44;;;;;;;0.80;0.80;;;7.20;99.90;;;;;;4970779;28;20604;-84
2022/11/14 00:15:11;;;;;;;0.70;0.70;;;7.20;99.90;;;;;;4958366;28;20383;-85
2022/11/14 00:17:37;;;;;;;0.70;0.70;;;7.10;99.90;;;;;;4949852;28;20048;-83
2022/11/14 00:20:05;;;;;;;0.70;0.70;;;7.20;99.90;;;;;;4984856;28;20482;-83
2022/11/14 00:22:33;;;;;;;0.70;0.70;;;7.10;99.90;;;;;;4967943;28;20044;-87
2022/11/14 00:24:59;;;;;;;0.70;0.70;;;7.10;99.90;;;;;;4975048;28;20606;-84
2022/11/14 00:27:25;;;;;;;0.70;0.70;;;7.10;99.90;;;;;;4975705;28;20056;-84
2022/11/14 00:29:51;;;;;;;0.70;0.70;;;7.10;99.90;;;;;;4977057;28;20049;-85
2022/11/14 00:32:18;;;;;;;0.70;0.70;;;6.90;99.90;;;;;;4972771;28;20063;-84
2022/11/14 00:34:45;;;;;;;0.70;0.70;;;7.00;99.90;;;;;;4972922;28;20234;-85
2022/11/14 00:37:10;;;;;;;0.70;0.70;;;6.90;99.90;;;;;;4975723;28;20095;-85
2022/11/14 00:39:36;;;;;;;0.80;0.80;;;6.90;99.90;;;;;;4971284;28;20899;-84
2022/11/14 00:42:02;;;;;;;0.60;0.60;;;6.90;99.90;;;;;;4973414;28;20263;-85
2022/11/14 00:44:28;;;;;;;0.70;0.70;;;6.80;99.90;;;;;;4972436;28;20967;-84
2022/11/14 00:46:53;;;;;;;0.70;0.70;;;6.80;99.90;;;;;;4970399;28;20472;-84
2022/11/14 00:49:19;;;;;;;0.70;0.70;;;6.80;99.90;;;;;;4976384;28;20076;-85
2022/11/14 00:51:45;;;;;;;0.70;0.70;;;6.80;99.90;;;;;;4972381;28;20913;-85
2022/11/14 00:54:11;;;;;;;0.70;0.70;;;6.70;99.90;;;;;;4968914;28;20047;-84
2022/11/14 00:56:37;;;;;;;0.60;0.60;;;6.70;99.90;;;;;;4971089;28;20446;-85
2022/11/14 00:59:02;;;;;;;2.03;1.92;;;6.50;99.90;;;;;;4979230;28;20411;-85
2022/11/14 01:01:28;;;;;;;0.70;0.70;;;6.50;99.90;;;;;;4971240;28;20036;-85
2022/11/14 01:03:54;;;;;;;0.70;0.70;;;6.50;99.90;;;;;;4977857;28;20384;-85
2022/11/14 01:06:20;;;;;;;0.70;0.70;;;6.50;99.90;;;;;;4952314;28;20418;-85
2022/11/14 01:08:45;;;;;;;0.70;0.70;;;6.40;99.90;;;;;;4973880;28;20048;-85
2022/11/14 01:11:15;;;;;;;0.73;0.73;;;6.40;99.90;;;;;;4967811;28;20830;-85
2022/11/14 01:13:41;;;;;;;0.80;0.80;;;6.30;99.90;;;;;;4956766;28;20542;-84
2022/11/14 01:16:08;;;;;;;0.80;0.80;;;6.20;99.90;;;;;;4973621;28;20044;-84
2022/11/14 01:18:35;;;;;;;0.80;0.80;;;6.10;99.90;;;;;;4984686;28;20394;-85
2022/11/14 01:21:04;;;;;;;0.77;0.77;;;6.20;99.90;;;;;;4961328;28;20088;-85
2022/11/14 01:23:30;;;;;;;0.80;0.80;;;6.20;99.90;;;;;;4995282;28;20448;-85
2022/11/14 01:26:10;;;;;;;0.80;0.80;;;6.10;99.90;;;;;;4986609;28;20037;-86
2022/11/14 01:28:37;;;;;;;0.80;0.80;;;6.20;99.90;;;;;;4975293;28;20119;-85
2022/11/14 01:31:16;;;;;;;0.80;0.80;;;6.20;99.90;;;;;;4968762;28;20114;-86
2022/11/14 01:33:42;;;;;;;0.77;0.77;;;6.00;99.90;;;;;;4979315;28;20052;-85
2022/11/14 01:36:09;;;;;;;0.80;0.80;;;6.10;99.90;;;;;;4971789;28;20075;-85
2022/11/14 01:38:35;;;;;;;0.77;0.77;;;6.10;99.90;;;;;;4966658;28;20502;-85
2022/11/14 01:41:02;;;;;;;0.70;0.70;;;6.00;99.90;;;;;;4968847;28;20575;-85
2022/11/14 01:43:30;;;;;;;0.80;0.80;;;5.90;99.90;;;;;;4969460;28;20060;-85
2022/11/14 01:46:20;;;;;;;0.70;0.70;;;6.10;99.90;;;;;;4969769;28;20131;-86
2022/11/14 01:48:58;;;;;;;4.65;4.30;;;5.80;99.90;;;;;;4972082;28;20820;-86
2022/11/14 01:51:37;;;;;;;0.70;0.70;;;5.90;99.90;;;;;;4970073;28;21241;-84
2022/11/14 01:54:11;;;;;;;0.80;0.80;;;5.90;99.90;;;;;;4967425;28;20203;-85
2022/11/14 01:56:39;;;;;;;;;;;5.90;99.90;;;;;;4965328;28;20063;-85
2022/11/14 01:59:08;;;;;;;0.80;0.80;;;5.60;99.90;;;;;;4972350;28;20471;-85
2022/11/14 02:01:37;;;;;;;0.80;0.80;;;5.70;99.90;;;;;;4970799;28;20422;-86
2022/11/14 02:04:05;;;;;;;0.80;0.80;;;5.70;99.90;;;;;;4984239;28;20072;-84
2022/11/14 02:06:31;;;;;;;0.75;0.75;;;5.70;99.90;;;;;;4969287;28;20056;-85
2022/11/14 02:09:01;;;;;;;0.80;0.80;;;5.50;99.90;;;;;;4973527;28;20051;-85
2022/11/14 02:11:33;;;;;;;0.70;0.70;;;5.60;99.90;;;;;;4968192;28;20045;-85
2022/11/14 02:14:00;;;;;;;0.80;0.80;;;5.60;99.90;;;;;;4973302;28;20494;-84
2022/11/14 02:16:26;;;;;;;0.70;0.70;;;5.50;99.90;;;;;;4953165;28;20048;-84
2022/11/14 02:18:52;;;;;;;0.70;0.70;;;5.60;99.90;;;;;;4962547;28;20050;-85
2022/11/14 02:21:18;;;;;;;0.70;0.70;;;5.50;99.90;;;;;;4969491;28;20076;-85
2022/11/14 02:23:44;;;;;;;0.80;0.80;;;5.60;99.90;;;;;;4978197;28;20147;-84
2022/11/14 02:26:10;;;;;;;0.70;0.70;;;5.80;99.90;;;;;;4979750;28;20553;-84
2022/11/14 02:28:36;;;;;;;0.80;0.80;;;5.90;99.90;;;;;;4955601;28;20052;-85
2022/11/14 02:31:02;;;;;;;0.80;0.80;;;5.90;99.90;;;;;;4950781;28;20576;-84
2022/11/14 02:33:28;;;;;;;0.73;0.73;;;5.80;99.90;;;;;;4989126;28;20160;-85
2022/11/14 02:35:53;;;;;;;0.80;0.80;;;5.90;99.90;;;;;;4971075;28;20358;-84
2022/11/14 02:38:37;;;;;;;0.70;0.70;;;6.10;99.90;;;;;;4977173;28;20075;-84
2022/11/14 02:41:03;;;;;;;0.80;0.80;;;6.20;99.90;;;;;;4971660;28;20395;-86
2022/11/14 02:43:29;;;;;;;0.80;0.80;;;5.90;99.90;;;;;;4981857;28;20656;-84
2022/11/14 02:45:55;;;;;;;0.70;0.70;;;6.10;99.90;;;;;;4982421;28;21218;-85
2022/11/14 02:48:21;;;;;;;0.75;0.75;;;6.00;99.90;;;;;;4962671;28;20144;-84
2022/11/14 02:50:50;;;;;;;0.70;0.70;;;6.00;99.90;;;;;;4979018;28;20105;-85
2022/11/14 02:53:15;;;;;;;0.80;0.80;;;6.20;99.90;;;;;;4972848;28;20774;-85
2022/11/14 02:55:41;;;;;;;0.70;0.70;;;6.20;99.90;;;;;;4960274;28;20046;-86
2022/11/14 02:58:07;;;;;;;0.70;0.70;;;6.10;99.90;;;;;;4976914;28;20062;-86
2022/11/14 03:00:33;;;;;;;0.70;0.70;;;6.10;99.90;;;;;;4996409;28;20414;-86
2022/11/14 03:03:01;;;;;;;0.70;0.70;;;6.10;99.90;;;;;;4971682;28;20504;-84
2022/11/14 03:05:27;;;;;;;0.80;0.80;;;6.30;99.90;;;;;;4969284;28;20579;-86
2022/11/14 03:07:54;;;;;;;0.70;0.70;;;6.30;99.90;;;;;;4953476;28;20049;-84
2022/11/14 03:10:23;;;;;;;0.70;0.70;;;6.40;99.90;;;;;;4969668;28;20048;-84
2022/11/14 03:12:56;;;;;;;0.70;0.70;;;6.40;99.90;;;;;;4967100;28;20084;-86
2022/11/14 03:15:22;;;;;;;0.80;0.80;;;6.40;99.90;;;;;;4969644;28;20058;-83
2022/11/14 03:17:49;;;;;;;0.80;0.80;;;6.40;99.90;;;;;;4966099;28;20267;-85
2022/11/14 03:20:15;;;;;;;0.70;0.70;;;6.30;99.90;;;;;;4948381;28;20484;-83
2022/11/14 03:22:41;;;;;;;0.70;0.70;;;6.30;99.90;;;;;;4965081;28;20798;-84
2022/11/14 03:25:07;;;;;;;0.77;0.77;;;6.30;99.90;;;;;;4970019;28;20145;-82
2022/11/14 03:27:33;;;;;;;0.80;0.80;;;6.40;99.90;;;;;;4963829;28;20859;-85
2022/11/14 03:29:59;;;;;;;0.70;0.70;;;6.40;99.90;;;;;;4960660;28;20052;-79
2022/11/14 03:32:25;;;;;;;0.80;0.80;;;6.40;99.90;;;;;;4981251;28;20486;-86
2022/11/14 03:34:50;;;;;;;0.75;0.75;;;6.40;99.90;;;;;;4967260;28;20052;-83
2022/11/14 03:37:16;;;;;;;0.70;0.70;;;6.50;99.90;;;;;;4967454;28;20044;-85
2022/11/14 03:39:42;;;;;;;0.80;0.80;;;6.50;99.90;;;;;;4965462;28;20068;-85
2022/11/14 03:42:08;;;;;;;0.70;0.70;;;6.40;99.90;;;;;;4962851;28;20082;-86
2022/11/14 03:44:34;;;;;;;0.80;0.80;;;6.40;99.90;;;;;;4970991;28;20506;-86
2022/11/14 03:47:00;;;;;;;0.70;0.70;;;6.30;99.90;;;;;;4972965;28;20812;-86
2022/11/14 03:49:26;;;;;;;0.70;0.70;;;6.40;99.90;;;;;;4946889;28;20048;-86
2022/11/14 03:51:51;;;;;;;0.70;0.70;;;6.40;99.90;;;;;;4964770;28;20055;-84
2022/11/14 03:54:17;;;;;;;0.80;0.80;;;6.50;99.90;;;;;;4965247;28;20478;-85
2022/11/14 03:56:43;;;;;;;0.80;0.80;;;6.40;99.90;;;;;;4949171;28;20492;-85
2022/11/14 03:59:09;;;;;;;0.70;0.70;;;6.50;99.90;;;;;;4943625;28;20048;-85
2022/11/14 04:01:34;;;;;;;0.70;0.70;;;6.50;99.90;;;;;;4962082;28;20071;-86
2022/11/14 04:04:00;;;;;;;0.80;0.80;;;6.40;99.90;;;;;;4963836;28;20036;-84
2022/11/14 04:06:26;;;;;;;0.70;0.70;;;6.40;99.90;;;;;;4964828;28;20044;-84
2022/11/14 04:08:51;;;;;;;0.70;0.70;;;6.50;99.90;;;;;;4964126;28;20063;-85
2022/11/14 04:11:23;;;;;;;0.70;0.70;;;6.50;99.90;;;;;;4945520;28;20553;-83
2022/11/14 04:13:49;;;;;;;3.58;3.42;;;6.50;99.90;;;;;;4964260;28;20121;-84
2022/11/14 04:16:15;;;;;;;0.70;0.70;;;6.40;99.90;;;;;;4991601;28;20127;-84
2022/11/14 04:18:40;;;;;;;0.70;0.70;;;6.40;99.90;;;;;;4964624;28;20413;-86
2022/11/14 04:21:06;;;;;;;0.80;0.80;;;6.50;99.90;;;;;;4963973;28;20057;-84
2022/11/14 04:23:32;;;;;;;0.70;0.70;;;6.40;99.90;;;;;;4967497;28;20048;-85
2022/11/14 04:25:58;;;;;;;0.70;0.70;;;6.50;99.90;;;;;;4943329;28;20052;-85
2022/11/14 04:28:24;;;;;;;0.70;0.70;;;6.50;99.90;;;;;;4962714;28;20049;-84
2022/11/14 04:30:49;;;;;;;0.70;0.70;;;6.60;99.90;;;;;;4955461;28;20591;-86
2022/11/14 04:33:15;;;;;;;0.70;0.70;;;6.40;99.90;;;;;;4960810;28;20049;-85
2022/11/14 04:35:41;;;;;;;0.70;0.70;;;6.60;99.90;;;;;;4970099;28;20045;-85
2022/11/14 04:38:10;;;;;;;0.70;0.70;;;6.50;99.90;;;;;;4934222;28;20052;-85
2022/11/14 04:40:35;;;;;;;0.70;0.70;;;6.50;99.90;;;;;;4949564;28;20044;-84
2022/11/14 04:43:01;;;;;;;0.70;0.70;;;6.50;99.90;;;;;;4964996;28;20889;-86
2022/11/14 04:45:27;;;;;;;0.80;0.80;;;6.50;99.90;;;;;;4940868;28;20051;-87
2022/11/14 04:47:53;;;;;;;0.70;0.70;;;6.60;99.90;;;;;;4963594;28;20525;-84
2022/11/14 04:50:19;;;;;;;0.80;0.80;;;6.50;99.90;;;;;;4960510;28;20388;-84
2022/11/14 04:52:44;;;;;;;0.70;0.70;;;6.60;99.90;;;;;;4941667;28;20473;-82
2022/11/14 04:55:10;;;;;;;0.77;0.77;;;6.60;99.90;;;;;;4960660;28;20269;-86
2022/11/14 04:57:36;;;;;;;0.70;0.70;;;6.60;99.90;;;;;;4964267;28;20837;-83
2022/11/14 05:00:03;;;;;;;0.70;0.70;;;6.50;99.90;;;;;;4964792;28;20461;-85
2022/11/14 05:02:32;;;;;;;0.70;0.70;;;6.60;99.90;;;;;;4968284;28;20052;-84
2022/11/14 05:04:58;;;;;;;0.80;0.80;;;6.50;99.90;;;;;;4961705;28;20068;-84
2022/11/14 05:07:42;;;;;;;0.73;0.73;;;6.50;99.90;;;;;;4961347;28;20196;-84
2022/11/14 05:10:08;;;;;;;0.77;0.77;;;6.50;99.90;;;;;;4975232;28;20056;-84
2022/11/14 05:12:34;;;;;;;0.70;0.70;;;6.60;99.90;;;;;;4959000;28;20508;-84
2022/11/14 05:15:00;;;;;;;0.70;0.70;;;6.60;99.90;;;;;;4963379;28;20592;-84
2022/11/14 05:17:26;;;;;;;0.70;0.70;;;6.40;99.90;;;;;;4979250;28;20044;-83
2022/11/14 05:19:52;;;;;;;0.70;0.70;;;6.40;99.90;;;;;;4962351;28;20044;-85
2022/11/14 05:22:18;;;;;;;0.70;0.70;;;6.50;99.90;;;;;;4957835;28;20448;-86
2022/11/14 05:24:44;;;;;;;0.73;0.73;;;6.50;99.90;;;;;;4960853;28;20128;-82
2022/11/14 05:27:10;;;;;;;0.70;0.70;;;6.40;99.90;;;;;;4977201;28;20048;-83
2022/11/14 05:29:36;;;;;;;0.70;0.70;;;6.40;99.90;;;;;;4940629;28;20044;-86
2022/11/14 05:32:02;;;;;;;0.70;0.70;;;6.50;99.90;;;;;;4943621;28;20118;-85
2022/11/14 05:34:30;;;;;;;0.70;0.70;;;6.30;99.90;;;;;;4948093;28;20173;-86
2022/11/14 05:36:55;;;;;;;0.70;0.70;;;6.40;99.90;;;;;;4941658;28;20577;-86
2022/11/14 05:39:21;;;;;;;0.70;0.70;;;6.50;99.90;;;;;;4981471;28;20052;-86
2022/11/14 05:41:47;;;;;;;0.70;0.70;;;6.50;99.90;;;;;;4954276;28;20056;-85
2022/11/14 05:44:13;;;;;;;0.70;0.70;;;6.30;99.90;;;;;;4972139;28;20506;-85
2022/11/14 05:46:38;;;;;;;0.70;0.70;;;6.50;99.90;;;;;;4970111;28;20230;-85
2022/11/14 05:49:04;;;;;;;0.70;0.70;;;6.30;99.90;;;;;;4961275;28;20135;-84
2022/11/14 05:51:30;;;;;;;0.70;0.70;;;6.30;99.90;;;;;;4962967;28;20636;-87
2022/11/14 05:53:56;;;;;;;0.70;0.70;;;6.30;99.90;;;;;;4932630;28;20128;-85
2022/11/14 05:56:22;;;;;;;0.70;0.70;;;6.40;99.90;;;;;;4966845;28;20067;-85
2022/11/14 05:58:47;;;;;;;0.70;0.70;;;6.30;99.90;;;;;;4974706;28;20055;-85
2022/11/14 06:01:16;;;;;;;0.70;0.70;;;6.10;99.90;;;;;;4947332;28;20044;-83
2022/11/14 06:03:45;;;;;;;0.70;0.70;;;6.20;99.90;;;;;;4981013;28;20048;-85
2022/11/14 06:06:13;;;;;;;0.70;0.70;;;6.10;99.90;;;;;;4965634;28;20052;-87
2022/11/14 06:08:39;;;;;;;0.80;0.80;;;6.00;99.90;;;;;;4958665;28;20290;-85
2022/11/14 06:11:11;;;;;;;0.70;0.70;;;6.10;99.90;;;;;;4969203;28;20063;-85
2022/11/14 06:13:37;;;;;;;1.17;1.08;;;6.10;99.90;;;;;;4983035;28;20216;-84
2022/11/14 06:16:06;;;;;;;0.80;0.80;;;5.90;99.90;;;;;;4969767;28;20044;-83
2022/11/14 06:18:32;;;;;;;0.80;0.80;;;5.80;99.90;;;;;;4974300;28;20078;-85
2022/11/14 06:21:04;;;;;;;0.75;0.75;;;5.80;99.90;;;;;;4986594;28;20044;-86
2022/11/14 06:23:30;;;;;;;0.80;0.80;;;5.70;99.90;;;;;;4957249;28;20127;-84
2022/11/14 06:26:00;;;;;;;0.70;0.70;;;5.70;99.90;;;;;;4974843;28;20381;-83
2022/11/14 06:28:26;;;;;;;0.70;0.70;;;5.70;99.90;;;;;;4973390;28;20565;-84
2022/11/14 06:30:57;;;;;;;0.70;0.70;;;5.50;99.90;;;;;;4977359;28;20055;-85
2022/11/14 06:33:23;;;;;;;0.70;0.70;;;5.60;99.90;;;;;;4946220;28;20127;-85
2022/11/14 06:35:48;;;;;;;0.70;0.70;;;5.70;99.90;;;;;;4957183;28;20059;-85
2022/11/14 06:38:14;;;;;;;0.70;0.70;;;5.60;99.90;;;;;;4969097;28;20040;-84
2022/11/14 06:40:40;;;;;;;0.70;0.70;;;5.60;99.90;;;;;;4966349;28;20462;-85
2022/11/14 06:43:06;;;;;;;0.80;0.80;;;5.70;99.90;;;;;;4964536;28;20874;-85
2022/11/14 06:45:31;;;;;;;0.80;0.80;;;5.50;99.90;;;;;;4948196;28;20457;-86
2022/11/14 06:47:58;;;;;;;0.70;0.70;;;5.40;99.90;;;;;;4962895;28;20536;-85
2022/11/14 06:50:24;;;;;;;0.80;0.80;;;5.50;99.90;;;;;;4964240;28;20055;-84
2022/11/14 06:52:50;;;;;;;0.80;0.80;;;5.60;99.90;;;;;;4968125;28;20048;-85
2022/11/14 06:55:16;;;;;;;1.13;1.13;;;5.60;99.90;;;;;;4968057;28;20241;-84
2022/11/14 06:57:42;;;;;;;0.80;0.80;;;5.30;99.90;;;;;;4948637;28;20565;-85
2022/11/14 07:00:08;;;;;;;0.80;0.80;;;5.50;99.90;;;;;;4971405;28;20082;-84
2022/11/14 07:02:34;;;;;;;0.80;0.80;;;5.30;99.90;;;;;;4969914;28;20861;-85
2022/11/14 07:05:00;;;;;;;0.73;0.73;;;5.20;99.90;;;;;;4967134;28;20049;-85
2022/11/14 07:07:25;;;;;;;0.70;0.70;;;5.20;99.90;;;;;;4955401;28;20416;-85
2022/11/14 07:09:53;;;;;;;0.70;0.70;;;5.10;99.90;;;;;;4953429;28;20592;-86
2022/11/14 07:12:18;;;;;;;0.77;0.77;;;5.40;99.90;;;;;;4970050;28;20808;-85
2022/11/14 07:14:44;;;;;;;0.75;0.75;;;5.20;99.90;;;;;;4968990;28;20040;-85
2022/11/14 07:17:10;;;;;;;0.70;0.70;;;5.40;99.90;;;;;;4968667;28;20048;-84
2022/11/14 07:19:36;;;;;;;0.68;0.68;;;5.20;99.90;;;;;;4948203;28;20048;-85
2022/11/14 07:22:02;;;;;;;0.77;0.77;;;5.20;99.90;;;;;;4962526;28;20044;-85
2022/11/14 07:24:28;;;;;;;0.70;0.70;;;5.20;99.90;;;;;;4958749;28;20249;-81
2022/11/14 07:26:54;;;;;;;0.70;0.70;;;5.20;99.90;;;;;;4990454;28;20040;-80
2022/11/14 07:29:19;;;;;;;0.70;0.70;;;5.40;99.90;;;;;;4982523;28;20059;-82
2022/11/14 07:31:45;;;;;;;0.73;0.73;;;5.30;99.90;;;;;;4984297;28;20411;-84
2022/11/14 07:34:11;;;;;;;0.80;0.80;;;5.30;99.90;;;;;;4964155;28;20160;-81
2022/11/14 07:36:37;;;;;;;0.70;0.70;;;5.60;99.90;;;;;;4965689;28;20036;-86
2022/11/14 07:39:02;;;;;;;0.70;0.70;;;5.50;99.90;;;;;;4956063;28;20551;-82
2022/11/14 07:41:28;;;;;;;0.70;0.70;;;5.60;99.90;;;;;;4984000;28;20052;-82
2022/11/14 07:43:57;;;;;;;0.73;0.73;;;5.60;99.90;;;;;;4965397;28;20614;-85
2022/11/14 07:46:23;;;;;;;0.70;0.70;;;5.50;99.90;;;;;;4949097;28;20317;-85
2022/11/14 07:48:48;;;;;;;0.70;0.70;;;5.80;99.90;;;;;;4949306;28;20056;-84
2022/11/14 07:51:17;;;;;;;0.70;0.70;;;5.60;99.90;;;;;;4971009;28;20045;-86
2022/11/14 07:53:43;;;;;;;0.70;0.70;;;5.60;99.90;;;;;;4949061;28;20212;-84
2022/11/14 07:56:10;;;;;;;0.80;0.80;;;5.70;99.90;;;;;;4961928;28;20767;-86
2022/11/14 07:58:40;;;;;;;0.80;0.80;;;5.80;99.90;;;;;;4947438;28;20052;-84
2022/11/14 08:01:08;;;;;;;0.80;0.80;;;5.70;99.90;;;;;;4966023;28;20858;-82
2022/11/14 08:03:34;;;;;;;0.75;0.75;;;5.80;99.90;;;;;;4967504;28;20959;-86
2022/11/14 08:06:09;;;;;;;0.70;0.70;;;5.90;99.90;;;;;;4948421;28;20048;-84
2022/11/14 08:08:36;;;;;;;0.70;0.70;;;5.80;99.90;;;;;;4983423;28;20048;-86
2022/11/14 08:11:02;;;;;;;0.70;0.70;;;5.90;99.90;;;;;;4966910;28;20055;-83
2022/11/14 08:13:31;;;;;;;0.70;0.70;;;6.00;99.90;;;;;;4988275;28;20994;-84
2022/11/14 08:15:58;;;;;;;0.70;0.70;;;6.10;99.90;;;;;;4966069;28;20614;-85
2022/11/14 08:18:24;;;;;;;0.70;0.70;;;6.20;99.90;;;;;;4947448;28;20497;-84
2022/11/14 08:20:50;;;;;;;0.70;0.70;;;6.40;99.90;;;;;;4949105;28;20382;-85
2022/11/14 08:23:16;;;;;;;0.70;0.70;;;6.40;99.90;;;;;;4950823;28;20051;-85
2022/11/14 08:25:45;;;;;;;0.70;0.70;;;6.40;99.90;;;;;;4968344;28;20056;-86
2022/11/14 08:28:11;;;;;;;0.70;0.70;;;6.50;99.90;;;;;;4962398;28;20052;-82
2022/11/14 08:30:36;;;;;;;0.70;0.70;;;6.50;99.90;;;;;;4968643;28;20220;-86
2022/11/14 08:33:04;;;;;;;0.70;0.70;;;6.60;99.90;;;;;;4964793;28;20036;-86
2022/11/14 08:35:30;;;;;;;0.70;0.70;;;6.50;99.90;;;;;;4942597;28;20493;-85
2022/11/14 08:37:55;;;;;;;0.70;0.70;;;6.70;99.90;;;;;;4970360;28;20059;-85
2022/11/14 08:40:24;;;;;;;0.80;0.80;;;6.60;99.90;;;;;;4968952;28;20040;-86
2022/11/14 08:42:50;;;;;;;0.70;0.70;;;6.60;99.90;;;;;;4954895;28;20083;-87
2022/11/14 08:45:16;;;;;;;0.80;0.80;;;6.60;99.90;;;;;;4951002;28;20059;-85
2022/11/14 08:47:41;;;;;;;0.70;0.70;;;6.80;99.90;;;;;;4968592;28;20451;-85
2022/11/14 08:50:07;;;;;;;0.70;0.70;;;7.00;99.90;;;;;;4968611;28;20426;-89
2022/11/14 08:52:33;;;;;;;0.70;0.70;;;6.80;99.90;;;;;;4971027;28;20460;-84
2022/11/14 08:54:59;;;;;;;0.70;0.70;;;6.90;99.90;;;;;;4949806;28;20049;-84
2022/11/14 08:57:24;;;;;;;0.70;0.70;;;7.00;99.90;;;;;;4962955;28;20048;-80
2022/11/14 08:59:50;;;;;;;0.70;0.70;;;7.00;99.90;;;;;;4987783;28;20596;-86
2022/11/14 09:02:17;;;;;;;0.70;0.70;;;7.00;99.90;;;;;;4969489;28;20048;-84
2022/11/14 09:04:43;;;;;;;0.70;0.70;;;7.00;99.90;;;;;;4943555;28;20860;-80
2022/11/14 09:07:08;;;;;;;0.70;0.70;;;6.90;99.90;;;;;;4983381;28;20062;-84
2022/11/14 09:09:34;;;;;;;0.70;0.70;;;7.00;99.90;;;;;;4966436;28;20059;-85
2022/11/14 09:12:00;;;;;;;0.70;0.70;;;7.10;99.90;;;;;;4969324;28;20839;-85
2022/11/14 09:14:26;;;;;;;0.70;0.70;;;7.00;99.90;;;;;;4963803;28;20124;-85
2022/11/14 09:16:52;;;;;;;0.60;0.60;;;6.90;99.90;;;;;;4946954;28;20052;-87
2022/11/14 09:19:18;;;;;;;0.68;0.68;;;7.00;99.90;;;;;;4939078;28;20083;-84
2022/11/14 09:21:43;;;;;;;0.70;0.70;;;7.00;99.90;;;;;;4967137;28;20048;-84
2022/11/14 09:24:09;;;;;;;0.60;0.60;;;7.30;99.90;;;;;;4973849;28;20056;-81
2022/11/14 09:26:35;;;;;;;0.60;0.60;;;7.20;99.90;;;;;;4946049;28;20045;-86
2022/11/14 09:29:01;;;;;;;0.68;0.68;;;7.40;99.90;;;;;;4951818;28;20178;-85
2022/11/14 09:31:32;;;;;;;0.70;0.70;;;7.10;99.90;;;;;;4960347;28;20090;-86
2022/11/14 09:33:58;;;;;;;0.70;0.70;;;7.30;99.90;;;;;;4946128;28;20445;-82
2022/11/14 09:36:24;;;;;;;0.60;0.60;;;7.40;99.90;;;;;;4979264;28;20055;-79
2022/11/14 09:38:50;;;;;;;0.70;0.70;;;7.40;99.90;;;;;;4966052;28;20049;-86
2022/11/14 09:41:45;;;;;;;0.63;0.63;;;7.40;99.90;;;;;;4966790;28;20612;-85
2022/11/14 09:44:25;;;;;;;0.68;0.68;;;7.80;99.90;;;;;;4962942;28;20584;-84
2022/11/14 09:47:01;;;;;;;0.60;0.60;;;7.70;99.90;;;;;;4960785;28;20598;-83
2022/11/14 09:49:34;;;;;;;0.60;0.60;;;7.50;99.90;;;;;;4963180;28;20252;-85
2022/11/14 09:52:08;;;;;;;0.70;0.70;;;7.60;99.90;;;;;;4961076;28;20052;-88
2022/11/14 09:54:50;;;;;;;0.60;0.60;;;7.60;99.90;;;;;;4976264;28;20240;-81
2022/11/14 09:57:19;;;;;;;0.70;0.70;;;7.50;99.90;;;;;;4984597;28;20840;-87
2022/11/14 09:59:45;;;;;;;0.60;0.60;;;7.30;99.90;;;;;;4970680;28;20402;-84
2022/11/14 10:02:37;;;;;;;0.60;0.60;;;7.50;99.90;;;;;;4966306;28;20568;-86
2022/11/14 10:05:35;;;;;;;0.70;0.70;;;7.50;99.90;;;;;;4948221;28;20186;-86
2022/11/14 10:08:01;;;;;;;0.68;0.68;;;7.80;99.90;;;;;;4967593;28;20490;-85
2022/11/14 10:10:39;;;;;;;0.60;0.60;;;8.00;99.90;;;;;;4945747;28;20105;-87
2022/11/14 10:13:24;;;;;;;0.70;0.70;;;8.00;99.90;;;;;;4971624;28;20553;-84
2022/11/14 10:15:58;;;;;;;0.65;0.65;;;7.80;99.90;;;;;;4991074;28;20063;-82
2022/11/14 10:18:56;;;;;;;0.60;0.60;;;8.00;99.90;;;;;;4962339;28;20048;-87
2022/11/14 10:21:39;;;;;;;0.68;0.68;;;7.80;99.90;;;;;;4962580;28;20943;-85
2022/11/14 10:24:17;;;;;;;0.60;0.60;;;7.90;99.90;;;;;;4963602;28;20064;-87
2022/11/14 10:27:31;;;;;;;0.60;0.60;;;8.20;99.90;;;;;;4948433;28;20533;-86
2022/11/14 10:30:03;;;;;;;0.70;0.70;;;8.30;99.90;;;;;;4944885;28;20062;-83
2022/11/14 10:33:06;;;;;;;0.60;0.60;;;8.20;99.90;;;;;;4963954;28;20094;-85
2022/11/14 10:35:41;;;;;;;0.70;0.70;;;8.10;99.90;;;;;;4984027;28;20044;-81
2022/11/14 10:38:35;;;;;;;0.65;0.65;;;8.20;99.90;;;;;;4962103;28;20059;-78
2022/11/14 10:41:04;;;;;;;0.60;0.60;;;8.20;99.90;;;;;;4987753;28;20396;-84
2022/11/14 10:43:36;;;;;;;0.63;0.63;;;8.40;99.90;;;;;;4976062;28;20139;-79
2022/11/14 10:46:15;;;;;;;0.60;0.60;;;8.60;99.90;;;;;;4958942;28;20052;-82
2022/11/14 10:48:46;;;;;;;0.70;0.70;;;8.60;99.90;;;;;;4981459;28;20280;-82
2022/11/14 10:51:23;;;;;;;0.63;0.63;;;8.60;99.90;;;;;;4965602;28;20048;-82
2022/11/14 10:54:15;;;;;;;0.70;0.70;;;8.60;99.90;;;;;;4983183;28;20727;-86
2022/11/14 10:56:53;;;;;;;0.60;0.60;;;8.80;99.90;;;;;;4968108;28;20567;-86
2022/11/14 10:59:19;;;;;;;0.60;0.60;;;8.90;99.90;;;;;;4943455;28;20052;-82
2022/11/14 11:01:55;;;;;;;0.60;0.60;;;8.70;99.90;;;;;;4951861;28;20852;-85
2022/11/14 11:04:28;;;;;;;0.60;0.60;;;8.70;99.90;;;;;;4965411;28;20107;-83
2022/11/14 11:13:02;;;;;;;0.57;0.57;;;9.20;99.90;;;;;;4967506;28;20437;-80
2022/11/14 11:15:39;;;;;;;0.60;0.60;;;9.50;99.90;;;;;;4966151;28;20216;-82
2022/11/14 11:18:25;;;;;;;0.60;0.60;;;9.70;99.90;;;;;;4991767;28;20036;-86
2022/11/14 11:21:08;;;;;;;0.55;0.55;;;9.70;99.90;;;;;;4967780;28;20059;-81
2022/11/14 11:23:35;;;;;;;0.60;0.60;;;9.80;99.90;;;;;;4974696;28;20550;-86
2022/11/14 11:26:08;;;;;;;0.55;0.55;;;9.50;99.90;;;;;;4964216;28;20052;-83
2022/11/14 11:28:36;;;;;;;0.60;0.60;;;9.80;99.90;;;;;;4984437;28;20053;-81
2022/11/14 11:31:06;;;;;;;0.60;0.60;;;10.00;99.90;;;;;;4969486;28;20040;-84
2022/11/14 11:33:34;;;;;;;0.60;0.60;;;9.90;99.90;;;;;;4951347;28;20040;-82
2022/11/14 11:36:18;;;;;;;0.50;0.50;;;10.10;99.90;;;;;;4958977;28;20056;-84
2022/11/14 11:38:46;;;;;;;0.52;0.52;;;10.30;99.90;;;;;;4952731;28;20137;-81
2022/11/14 11:41:34;;;;;;;0.60;0.60;;;10.00;99.90;;;;;;4978548;28;20098;-81
2022/11/14 11:44:04;;;;;;;0.60;0.60;;;9.80;99.90;;;;;;4955649;28;20434;-80
2022/11/14 11:46:51;;;;;;;0.60;0.60;;;9.80;99.90;;;;;;4982881;28;20052;-82
2022/11/14 11:49:43;;;;;;;0.50;0.50;;;9.70;99.90;;;;;;4994654;28;20427;-81
2022/11/14 11:52:31;;;;;;;0.60;0.60;;;9.70;99.90;;;;;;4951645;28;20159;-80
2022/11/14 11:55:58;;;;;;;0.60;0.60;;;10.10;99.90;;;;;;4949513;28;20090;-79
2022/11/14 11:58:36;;;;;;;0.60;0.60;;;10.00;99.90;;;;;;4888187;28;20116;-82
2022/11/14 12:01:02;;;;;;;0.60;0.60;;;10.00;99.90;;;;;;4876129;28;20689;-82
2022/11/14 12:03:28;;;;;;;0.60;0.60;;;9.90;99.90;;;;;;4932242;28;20140;-78
2022/11/14 12:06:24;;;;;;;0.60;0.60;;;10.10;99.90;;;;;;4962056;28;20041;-83
2022/11/14 12:09:04;;;;;;;0.60;0.60;;;10.30;99.90;;;;;;4956429;28;20556;-79
2022/11/14 12:11:34;;;;;;;0.52;0.52;;;10.30;99.90;;;;;;4972601;28;20094;-80
2022/11/14 12:14:24;;;;;;;0.60;0.60;;;10.40;99.90;;;;;;4965393;28;20052;-82
2022/11/14 12:16:56;;;;;;;0.60;0.60;;;10.60;99.90;;;;;;4977137;28;20040;-82
2022/11/14 12:19:30;;;;;;;0.60;0.60;;;10.30;99.90;;;;;;4979480;28;20043;-81
2022/11/14 12:22:15;;;;;;;0.60;0.60;;;10.40;99.90;;;;;;4983548;28;20044;-79
2022/11/14 12:24:47;;;;;;;0.60;0.60;;;10.60;99.90;;;;;;4962659;28;20083;-79
2022/11/14 12:27:53;;;;;;;0.60;0.60;;;10.90;99.90;;;;;;4975262;28;20068;-79
2022/11/14 12:30:22;;;;;;;0.60;0.60;;;10.80;99.90;;;;;;4966559;28;20083;-79
2022/11/14 12:33:07;;;;;;;0.60;0.60;;;11.00;99.90;;;;;;4984024;28;20432;-79
2022/11/14 12:35:35;;;;;;;0.60;0.60;;;10.90;99.90;;;;;;4960105;28;20044;-79
2022/11/14 12:38:05;;;;;;;0.50;0.50;;;10.70;99.90;;;;;;4939196;28;20219;-78
2022/11/14 12:40:41;;;;;;;0.60;0.60;;;10.60;99.90;;;;;;4976634;28;20059;-80
2022/11/14 12:43:31;;;;;;;0.60;0.60;;;10.60;99.90;;;;;;4985318;28;20791;-82
2022/11/14 12:45:59;;;;;;;0.60;0.60;;;10.70;99.90;;;;;;4981663;28;20497;-86
2022/11/14 12:48:25;;;;;;;0.57;0.57;;;10.80;99.90;;;;;;4948227;28;20578;-83
2022/11/14 12:50:55;;;;;;;0.60;0.60;;;10.80;99.90;;;;;;4965226;28;20040;-81
2022/11/14 12:53:35;;;;;;;0.50;0.50;;;10.80;99.90;;;;;;4987531;28;20044;-82
2022/11/14 12:56:16;;;;;;;0.60;0.60;;;10.80;99.90;;;;;;4965147;28;20380;-81
2022/11/14 12:59:04;;;;;;;0.60;0.60;;;11.00;99.90;;;;;;4975639;28;20235;-81
2022/11/14 13:01:52;;;;;;;0.60;0.60;;;11.00;99.90;;;;;;4971566;28;20048;-79
2022/11/14 13:04:23;;;;;;;0.57;0.57;;;11.10;99.90;;;;;;4976934;28;20041;-77
2022/11/14 13:06:49;;;;;;;0.50;0.50;;;11.00;99.90;;;;;;4961232;28;20556;-79
2022/11/14 13:09:41;;;;;;;0.50;0.50;;;11.20;99.90;;;;;;4980772;28;20040;-79
2022/11/14 13:23:54;;;;;;;0.60;0.60;;;11.10;99.90;;;;;;4979254;28;20049;-81
2022/11/14 13:26:20;;;;;;;0.52;0.52;;;11.10;99.90;;;;;;4958884;28;20129;-80